createdAt,value
2023-03-16T00:00:03.341Z,95
2023-03-16T00:10:04.001Z,96
2023-03-16T00:20:04.487Z,96
2023-03-16T00:30:05.166Z,96
2023-03-16T00:40:05.883Z,96
2023-03-16T01:00:07.182Z,97
2023-03-16T01:10:07.706Z,97
2023-03-16T01:20:08.117Z,97
2023-03-16T01:30:08.489Z,97
2023-03-16T01:40:08.635Z,97
2023-03-16T01:50:09.614Z,98
2023-03-16T02:00:10.032Z,96
2023-03-16T02:00:31.933Z,96
2023-03-16T02:10:15.976Z,88
2023-03-16T02:20:16.927Z,84
2023-03-16T02:30:17.171Z,82
2023-03-16T02:40:18.151Z,81
2023-03-16T02:50:18.425Z,80
2023-03-16T03:00:18.969Z,80
2023-03-16T03:10:19.955Z,79
2023-03-16T03:20:20.147Z,78
2023-03-16T03:30:20.845Z,77
2023-03-16T03:40:20.989Z,77
2023-03-16T03:50:21.295Z,77
2023-03-16T04:00:21.749Z,77
2023-03-16T04:10:22.466Z,77
2023-03-16T04:20:22.708Z,77
2023-03-16T04:30:23.252Z,77
2023-03-16T04:40:23.529Z,77
2023-03-16T05:00:24.273Z,77
2023-03-16T05:10:25.145Z,77
2023-03-16T05:20:25.736Z,78
2023-03-16T05:30:26.580Z,78
2023-03-16T05:40:27.203Z,79
2023-03-16T05:50:27.597Z,79
2023-03-16T06:00:27.991Z,79
2023-03-16T06:10:28.445Z,79
2023-03-16T06:20:29.003Z,79
2023-03-16T06:30:29.112Z,79
2023-03-16T06:40:30.218Z,78
2023-03-16T06:50:30.474Z,77
2023-03-16T07:00:31.564Z,77
2023-03-16T07:10:31.914Z,76
2023-03-16T07:20:32.156Z,75
2023-03-16T07:30:32.346Z,74
2023-03-16T07:50:33.351Z,73
2023-03-16T08:00:33.900Z,71
2023-03-16T08:10:34.448Z,70
2023-03-16T08:20:35.312Z,69
2023-03-16T08:30:35.782Z,68
2023-03-16T08:40:36.740Z,68
2023-03-16T08:50:37.172Z,69
2023-03-16T09:00:37.679Z,68
2023-03-16T09:10:38.096Z,69
2023-03-16T09:20:38.817Z,69
2023-03-16T09:30:39.237Z,70
2023-03-16T09:40:39.647Z,69
2023-03-16T09:50:48.006Z,70
2023-03-16T10:00:40.729Z,69
2023-03-16T10:10:41.247Z,68
2023-03-16T10:20:42.293Z,68
2023-03-16T10:30:42.990Z,69
2023-03-16T10:40:43.255Z,69
2023-03-16T11:00:44.329Z,73
2023-03-16T11:10:54.916Z,73
2023-03-16T11:20:45.849Z,72
2023-03-16T11:30:46.379Z,72
2023-03-16T11:40:46.417Z,71
2023-03-16T11:50:46.742Z,69
2023-03-16T12:00:46.996Z,67
2023-03-16T12:10:47.061Z,65
2023-03-16T12:20:47.208Z,63
2023-03-16T12:30:47.666Z,63
2023-03-16T12:50:48.361Z,62
2023-03-16T13:00:49.259Z,62
2023-03-16T13:10:49.712Z,61
2023-03-16T13:20:49.987Z,61
2023-03-16T13:30:50.579Z,61
2023-03-16T13:40:50.704Z,59
2023-03-16T13:50:50.825Z,58
2023-03-16T14:00:51.102Z,57
2023-03-16T14:10:51.750Z,58
2023-03-16T14:20:52.574Z,57
2023-03-16T14:30:53.596Z,57
2023-03-16T14:40:53.991Z,57
2023-03-16T14:50:54.898Z,58
2023-03-16T15:00:55.058Z,58
2023-03-16T15:10:55.995Z,58
2023-03-16T15:20:57.106Z,59
2023-03-16T15:30:57.377Z,60
2023-03-16T15:40:57.505Z,60
2023-03-16T15:50:58.514Z,60
2023-03-16T16:00:59.470Z,61
2023-03-16T16:10:59.805Z,61
2023-03-16T16:21:00.832Z,61
2023-03-16T16:31:01.205Z,61
2023-03-16T16:41:01.515Z,61
2023-03-16T16:51:01.656Z,61
2023-03-16T17:01:02.174Z,62
2023-03-16T17:11:02.664Z,62
2023-03-16T17:21:03.079Z,63
2023-03-16T17:31:03.751Z,63
2023-03-16T17:41:03.843Z,64
2023-03-16T17:51:04.767Z,64
2023-03-16T18:01:04.933Z,64
2023-03-16T18:11:05.610Z,65
2023-03-16T18:21:06.294Z,65
2023-03-16T18:31:06.957Z,66
2023-03-16T18:41:07.953Z,66
2023-03-16T18:51:08.037Z,66
2023-03-16T19:01:08.888Z,67
2023-03-16T19:11:09.900Z,66
2023-03-16T19:21:10.275Z,67
2023-03-16T19:31:10.385Z,67
2023-03-16T19:41:10.891Z,67
2023-03-16T19:51:11.258Z,67
2023-03-16T20:01:12.153Z,67
2023-03-16T20:11:12.424Z,66
2023-03-16T20:21:12.728Z,67
2023-03-16T20:31:13.603Z,67
2023-03-16T20:41:14.327Z,67
2023-03-16T20:51:14.825Z,68
2023-03-16T21:01:15.063Z,68
2023-03-16T21:11:15.789Z,68
2023-03-16T21:21:16.534Z,68
2023-03-16T21:31:19.486Z,69
2023-03-16T21:41:17.924Z,69
2023-03-16T21:51:18.241Z,69
2023-03-16T22:01:19.282Z,70
2023-03-16T22:11:20.241Z,70
2023-03-16T22:21:20.906Z,70
2023-03-16T22:31:21.586Z,70
2023-03-16T22:41:21.995Z,70
2023-03-16T23:01:23.700Z,70
2023-03-16T23:21:25.179Z,70
2023-03-16T23:31:26.146Z,70
2023-03-16T23:41:27.123Z,70
2023-03-16T23:51:28.184Z,70
